createdAt,value
2023-03-28T00:01:09.307Z,99558.63
2023-03-28T00:03:40.145Z,99562.53
2023-03-28T00:06:11.939Z,99564.09
2023-03-28T00:08:40.342Z,99572.94
2023-03-28T00:11:20.281Z,99581.75
2023-03-28T00:13:58.423Z,99576.50
2023-03-28T00:16:39.407Z,99567.41
2023-03-28T00:19:17.867Z,99578.44
2023-03-28T00:21:48.011Z,99584.03
2023-03-28T00:24:18.881Z,99582.53
2023-03-28T00:26:49.529Z,99586.88
2023-03-28T00:29:21.708Z,99586.03
2023-03-28T00:31:51.038Z,99596.03
2023-03-28T00:34:19.727Z,99599.41
2023-03-28T00:36:47.485Z,99598.09
2023-03-28T00:39:15.441Z,99606.38
2023-03-28T00:41:45.079Z,99608.62
2023-03-28T00:44:43.709Z,99614.97
2023-03-28T00:47:16.657Z,99620.13
2023-03-28T00:49:46.859Z,99624.25
2023-03-28T00:52:18.008Z,99633.25
2023-03-28T00:54:46.431Z,99640.06
2023-03-28T00:57:14.689Z,99639.25
2023-03-28T00:59:44.776Z,99642.53
2023-03-28T01:02:12.433Z,99642.87
2023-03-28T01:04:52.644Z,99651.28
2023-03-28T01:07:21.372Z,99646.19
2023-03-28T01:09:49.293Z,99652.63
2023-03-28T01:12:18.023Z,99654.75
2023-03-28T01:14:47.880Z,99658.28
2023-03-28T01:17:16.186Z,99663.56
2023-03-28T01:20:06.624Z,99670.88
2023-03-28T01:23:09.009Z,99668.19
2023-03-28T01:25:46.118Z,99664.31
2023-03-28T01:28:34.619Z,99678.44
2023-03-28T01:31:15.795Z,99679.09
2023-03-28T01:34:31.501Z,99673.41
2023-03-28T01:37:09.593Z,99690.22
2023-03-28T01:39:47.678Z,99694.59
2023-03-28T01:42:22.725Z,99694.50
2023-03-28T01:45:14.821Z,99693.38
2023-03-28T01:47:49.514Z,99699.41
2023-03-28T01:50:19.843Z,99698.06
2023-03-28T01:52:51.861Z,99698.72
2023-03-28T01:55:24.168Z,99711.16
2023-03-28T01:58:05.781Z,99706.25
2023-03-28T02:00:44.148Z,99716.69
2023-03-28T02:03:31.892Z,99716.59
2023-03-28T02:06:04.750Z,99717.94
2023-03-28T02:08:38.031Z,99722.09
2023-03-28T02:11:10.255Z,99734.75
2023-03-28T02:13:45.729Z,99732.75
2023-03-28T02:16:16.856Z,99739.81
2023-03-28T02:18:49.232Z,99732.00
2023-03-28T02:21:22.845Z,99737.66
2023-03-28T02:23:53.164Z,99747.66
2023-03-28T02:26:24.771Z,99746.22
2023-03-28T02:28:56.704Z,99752.59
2023-03-28T02:31:25.725Z,99746.19
2023-03-28T02:33:56.206Z,99744.53
2023-03-28T02:36:27.018Z,99750.50
2023-03-28T02:39:10.460Z,99746.72
2023-03-28T02:42:02.874Z,99752.91
2023-03-28T02:44:59.726Z,99756.16
2023-03-28T02:47:49.131Z,99755.00
2023-03-28T02:50:55.626Z,99762.72
2023-03-28T02:53:46.094Z,99779.97
2023-03-28T02:56:53.297Z,99790.19
2023-03-28T02:59:31.859Z,99789.88
2023-03-28T03:02:01.625Z,99789.91
2023-03-28T03:04:29.825Z,99794.63
2023-03-28T03:07:02.216Z,99797.66
2023-03-28T03:09:30.572Z,99805.84
2023-03-28T03:11:58.103Z,99815.88
2023-03-28T03:14:26.321Z,99818.84
2023-03-28T03:16:55.188Z,99820.09
2023-03-28T03:19:22.841Z,99828.53
2023-03-28T03:21:50.972Z,99829.47
2023-03-28T03:24:18.970Z,99832.03
2023-03-28T03:26:47.419Z,99824.75
2023-03-28T03:29:16.639Z,99834.13
2023-03-28T03:31:46.329Z,99837.22
2023-03-28T03:34:16.609Z,99838.97
2023-03-28T03:36:45.585Z,99842.81
2023-03-28T03:39:13.868Z,99846.50
2023-03-28T03:41:41.999Z,99849.75
2023-03-28T03:44:10.084Z,99860.38
2023-03-28T03:46:41.128Z,99845.38
2023-03-28T03:49:12.620Z,99855.38
2023-03-28T03:51:47.892Z,99858.22
2023-03-28T03:54:15.736Z,99864.22
2023-03-28T03:56:46.527Z,99872.13
2023-03-28T03:59:19.392Z,99862.16
2023-03-28T04:01:57.687Z,99870.75
2023-03-28T04:04:28.970Z,99877.31
2023-03-28T04:06:59.154Z,99886.13
2023-03-28T04:09:28.803Z,99882.41
2023-03-28T04:11:56.770Z,99886.13
2023-03-28T04:14:26.701Z,99897.16
2023-03-28T04:17:02.274Z,99888.31
2023-03-28T04:19:32.933Z,99899.56
2023-03-28T04:22:01.045Z,99903.44
2023-03-28T04:24:30.457Z,99905.84
2023-03-28T04:26:59.470Z,99908.25
2023-03-28T04:29:32.555Z,99903.28
2023-03-28T04:32:11.190Z,99912.38
2023-03-28T04:34:51.918Z,99920.84
2023-03-28T04:37:20.618Z,99929.59
2023-03-28T04:39:49.653Z,99927.00
2023-03-28T04:42:28.076Z,99929.09
2023-03-28T04:45:04.701Z,99936.28
2023-03-28T04:47:40.695Z,99923.88
2023-03-28T04:50:11.152Z,99931.63
2023-03-28T04:52:42.947Z,99938.75
2023-03-28T04:55:17.855Z,99949.41
2023-03-28T04:57:51.869Z,99948.75
2023-03-28T05:00:22.823Z,99943.91
2023-03-28T05:03:05.995Z,99943.47
2023-03-28T05:05:41.639Z,99945.22
2023-03-28T05:08:21.782Z,99943.69
2023-03-28T05:10:52.033Z,99938.63
2023-03-28T05:13:29.606Z,99954.28
2023-03-28T05:16:00.948Z,99955.47
2023-03-28T05:18:32.659Z,99957.47
2023-03-28T05:21:02.241Z,99958.53
2023-03-28T05:23:34.951Z,99958.78
2023-03-28T05:26:08.674Z,99964.03
2023-03-28T05:28:39.852Z,99968.69
2023-03-28T05:31:09.665Z,99974.78
2023-03-28T05:33:38.483Z,99982.91
2023-03-28T05:36:07.706Z,99967.09
2023-03-28T05:38:37.523Z,99984.09
2023-03-28T05:41:08.836Z,99979.47
2023-03-28T05:43:41.026Z,99982.19
2023-03-28T05:46:10.467Z,99979.19
2023-03-28T05:48:41.810Z,99989.84
2023-03-28T05:51:17.285Z,99978.97
2023-03-28T05:53:47.645Z,99981.62
2023-03-28T05:56:18.933Z,99988.41
2023-03-28T05:58:56.607Z,99994.00
2023-03-28T06:01:29.317Z,99994.22
2023-03-28T06:04:02.267Z,99986.37
2023-03-28T06:06:34.622Z,99991.81
2023-03-28T06:09:12.668Z,99991.28
2023-03-28T06:11:42.407Z,100001.31
2023-03-28T06:14:11.519Z,100004.16
2023-03-28T06:16:40.690Z,100013.63
2023-03-28T06:19:17.668Z,100013.53
2023-03-28T06:21:51.222Z,100013.44
2023-03-28T06:24:21.533Z,100029.59
2023-03-28T06:26:55.670Z,100026.16
2023-03-28T06:29:25.665Z,100039.50
2023-03-28T06:31:56.391Z,100041.50
2023-03-28T06:34:30.850Z,100033.41
2023-03-28T06:37:02.740Z,100050.66
2023-03-28T06:39:33.572Z,100046.66
2023-03-28T06:42:03.561Z,100055.50
2023-03-28T06:44:33.153Z,100067.81
2023-03-28T06:47:02.952Z,100055.91
2023-03-28T06:49:32.181Z,100057.94
2023-03-28T06:52:06.245Z,100069.47
2023-03-28T06:54:37.241Z,100060.66
2023-03-28T06:57:08.402Z,100070.87
2023-03-28T06:59:44.646Z,100073.53
2023-03-28T07:02:14.903Z,100088.28
2023-03-28T07:04:43.956Z,100077.91
2023-03-28T07:07:17.810Z,100069.38
2023-03-28T07:09:49.964Z,100073.31
2023-03-28T07:12:19.921Z,100072.53
2023-03-28T07:14:49.071Z,100075.28
2023-03-28T07:17:17.833Z,100077.28
2023-03-28T07:19:51.328Z,100083.81
2023-03-28T07:22:21.970Z,100083.94
2023-03-28T07:24:50.160Z,100084.66
2023-03-28T07:27:26.638Z,100095.56
2023-03-28T07:32:48.110Z,100094.19
2023-03-28T07:35:23.045Z,100102.97
2023-03-28T07:37:54.177Z,100102.25
2023-03-28T07:40:32.564Z,100105.00
2023-03-28T07:43:01.837Z,100108.66
2023-03-28T07:45:32.279Z,100104.59
2023-03-28T07:48:01.212Z,100102.47
2023-03-28T07:50:35.620Z,100106.91
2023-03-28T07:53:04.256Z,100106.09
2023-03-28T07:55:39.392Z,100110.06
2023-03-28T07:58:16.981Z,100107.00
2023-03-28T08:00:53.826Z,100100.31
2023-03-28T08:03:24.772Z,100091.81
2023-03-28T08:05:54.685Z,100098.91
2023-03-28T08:08:24.101Z,100085.69
2023-03-28T08:10:52.744Z,100084.50
2023-03-28T08:13:21.338Z,100085.69
2023-03-28T08:15:55.527Z,100087.69
2023-03-28T08:18:26.701Z,100090.03
2023-03-28T08:21:02.275Z,100091.41
2023-03-28T08:23:38.791Z,100080.87
2023-03-28T08:26:08.606Z,100099.06
2023-03-28T08:28:42.650Z,100095.84
2023-03-28T08:31:16.357Z,100091.75
2023-03-28T08:33:49.562Z,100090.94
2023-03-28T08:36:23.431Z,100087.13
2023-03-28T08:38:55.236Z,100073.78
2023-03-28T08:41:45.586Z,100074.16
2023-03-28T08:44:33.808Z,100078.78
2023-03-28T08:47:12.284Z,100072.13
2023-03-28T08:50:24.632Z,100079.22
2023-03-28T08:52:56.293Z,100067.34
2023-03-28T08:55:28.536Z,100058.81
2023-03-28T08:57:57.424Z,100057.63
2023-03-28T09:00:29.694Z,100055.88
2023-03-28T09:03:00.195Z,100070.94
2023-03-28T09:05:49.924Z,100067.37
2023-03-28T09:08:45.929Z,100074.75
2023-03-28T09:11:42.152Z,100074.06
2023-03-28T09:14:37.983Z,100079.66
2023-03-28T09:17:39.708Z,100081.41
2023-03-28T09:23:08.229Z,100071.00
2023-03-28T09:25:51.596Z,100082.78
2023-03-28T09:28:34.618Z,100094.00
2023-03-28T09:31:06.054Z,100088.59
2023-03-28T09:33:45.575Z,100091.44
2023-03-28T09:36:31.569Z,100100.50
2023-03-28T09:39:18.544Z,100104.72
2023-03-28T09:42:04.600Z,100109.31
2023-03-28T09:44:53.971Z,100098.22
2023-03-28T09:47:27.810Z,100099.78
2023-03-28T09:50:09.420Z,100098.34
2023-03-28T09:52:43.641Z,100085.06
2023-03-28T09:55:19.115Z,100093.31
2023-03-28T09:58:04.895Z,100082.22
2023-03-28T10:00:38.769Z,100071.72
2023-03-28T10:03:35.007Z,100099.31
2023-03-28T10:06:31.714Z,100069.84
2023-03-28T10:09:18.511Z,100064.72
2023-03-28T10:11:55.798Z,100072.94
2023-03-28T10:14:36.936Z,100069.72
2023-03-28T10:19:54.594Z,100066.03
2023-03-28T10:22:26.334Z,100075.88
2023-03-28T10:24:56.887Z,100071.09
2023-03-28T10:27:53.826Z,100068.88
2023-03-28T10:30:37.161Z,100069.31
2023-03-28T10:33:21.544Z,100067.87
2023-03-28T10:36:07.905Z,100073.78
2023-03-28T10:38:47.410Z,100088.13
2023-03-28T10:44:18.079Z,100076.16
2023-03-28T10:46:47.425Z,100079.59
2023-03-28T10:49:20.440Z,100072.53
2023-03-28T10:51:55.157Z,100070.75
2023-03-28T10:54:35.125Z,100053.91
2023-03-28T10:57:18.877Z,100062.31
2023-03-28T11:00:08.676Z,100060.28
2023-03-28T11:02:56.046Z,100061.97
2023-03-28T11:05:40.654Z,100059.41
2023-03-28T11:08:19.756Z,100061.53
2023-03-28T11:11:21.025Z,100065.81
2023-03-28T11:14:07.600Z,100074.63
2023-03-28T11:16:59.174Z,100057.16
2023-03-28T11:19:49.614Z,100070.19
2023-03-28T11:22:49.699Z,100053.94
2023-03-28T11:25:57.917Z,100060.59
2023-03-28T11:28:46.561Z,100069.44
2023-03-28T11:31:20.682Z,100051.84
2023-03-28T11:33:53.406Z,100057.87
2023-03-28T11:36:40.876Z,100058.25
2023-03-28T11:39:57.642Z,100066.59
2023-03-28T11:42:53.614Z,100074.84
2023-03-28T11:45:51.407Z,100079.81
2023-03-28T11:48:28.912Z,100077.19
2023-03-28T11:54:04.585Z,100062.47
2023-03-28T11:56:41.627Z,100066.25
2023-03-28T11:59:27.154Z,100053.81
2023-03-28T12:07:53.594Z,100062.09
2023-03-28T12:10:38.422Z,100064.25
2023-03-28T12:13:16.933Z,100053.72
2023-03-28T12:15:57.720Z,100048.94
2023-03-28T12:18:43.987Z,100053.66
2023-03-28T12:21:21.848Z,100058.28
2023-03-28T12:23:54.101Z,100060.66
2023-03-28T12:26:45.083Z,100068.25
2023-03-28T12:29:18.789Z,100062.88
2023-03-28T12:32:17.072Z,100045.75
2023-03-28T12:35:20.589Z,100062.59
2023-03-28T12:38:23.864Z,100057.94
2023-03-28T12:41:02.054Z,100058.72
2023-03-28T12:46:14.799Z,100067.19
2023-03-28T12:48:51.634Z,100055.62
2023-03-28T12:51:41.634Z,100070.59
2023-03-28T12:54:21.522Z,100073.09
2023-03-28T12:57:00.582Z,100078.69
2023-03-28T12:59:52.628Z,100076.00
2023-03-28T13:02:48.858Z,100089.16
2023-03-28T13:06:02.573Z,100092.81
2023-03-28T13:08:35.034Z,100087.19
2023-03-28T13:11:38.212Z,100100.44
2023-03-28T13:14:20.668Z,100086.59
2023-03-28T13:17:03.629Z,100104.09
2023-03-28T13:19:53.286Z,100105.72
2023-03-28T13:22:33.402Z,100137.47
2023-03-28T13:25:28.480Z,100130.53
2023-03-28T13:28:22.892Z,100147.97
2023-03-28T13:31:12.709Z,100182.16
2023-03-28T13:34:06.887Z,100188.75
2023-03-28T13:36:37.817Z,100171.22
2023-03-28T13:48:12.794Z,100206.31
2023-03-28T13:50:48.592Z,100198.69
2023-03-28T13:53:28.240Z,100217.78
2023-03-28T13:56:11.811Z,100194.84
2023-03-28T13:58:42.102Z,100189.81
2023-03-28T14:01:17.907Z,100197.56
2023-03-28T14:03:49.831Z,100198.28
2023-03-28T14:06:28.995Z,100202.00
2023-03-28T14:09:15.060Z,100176.78
2023-03-28T14:11:53.890Z,100204.28
2023-03-28T14:14:44.917Z,100206.84
2023-03-28T14:17:23.792Z,100201.41
2023-03-28T14:20:01.688Z,100211.00
2023-03-28T14:25:14.554Z,100212.78
2023-03-28T14:30:32.629Z,100202.50
2023-03-28T14:33:15.021Z,100212.12
2023-03-28T14:38:47.583Z,100212.50
2023-03-28T14:41:27.672Z,100213.94
2023-03-28T14:43:58.982Z,100216.53
2023-03-28T14:46:33.261Z,100223.31
2023-03-28T14:51:46.064Z,100240.50
2023-03-28T14:54:27.898Z,100247.50
2023-03-28T14:56:59.655Z,100238.94
2023-03-28T14:59:51.582Z,100265.28
2023-03-28T15:05:17.848Z,100315.19
2023-03-28T15:10:54.865Z,100308.44
2023-03-28T15:13:32.649Z,100312.69
2023-03-28T15:18:54.712Z,100306.75
2023-03-28T15:21:30.541Z,100311.16
2023-03-28T15:24:07.548Z,100326.50
2023-03-28T15:26:50.555Z,100334.59
2023-03-28T15:29:25.872Z,100337.72
2023-03-28T15:32:17.583Z,100335.75
2023-03-28T15:35:10.292Z,100333.31
2023-03-28T15:37:48.568Z,100332.97
2023-03-28T15:40:31.185Z,100326.97
2023-03-28T15:43:27.185Z,100324.87
2023-03-28T15:48:41.612Z,100333.16
2023-03-28T15:53:57.596Z,100323.44
2023-03-28T15:56:41.610Z,100331.09
2023-03-28T15:59:35.058Z,100340.44
2023-03-28T16:05:10.580Z,100347.38
2023-03-28T16:07:51.845Z,100360.91
2023-03-28T16:13:19.791Z,100380.97
2023-03-28T16:15:57.686Z,100378.63
2023-03-28T16:18:43.760Z,100378.12
2023-03-28T16:21:19.806Z,100387.41
2023-03-28T16:23:54.889Z,100376.41
2023-03-28T16:26:25.529Z,100377.94
2023-03-28T16:28:56.252Z,100382.91
2023-03-28T16:34:17.595Z,100383.00
2023-03-28T16:36:49.205Z,100399.25
2023-03-28T16:39:20.479Z,100409.00
2023-03-28T16:41:49.070Z,100406.47
2023-03-28T16:44:26.938Z,100420.63
2023-03-28T16:47:02.651Z,100418.47
2023-03-28T16:49:32.644Z,100415.91
2023-03-28T16:52:09.596Z,100420.22
2023-03-28T16:54:57.702Z,100417.22
2023-03-28T16:57:32.899Z,100443.97
2023-03-28T17:00:14.372Z,100449.59
2023-03-28T17:02:53.614Z,100457.06
2023-03-28T17:13:48.610Z,100461.66
2023-03-28T17:16:25.863Z,100463.00
2023-03-28T17:18:55.742Z,100466.47
2023-03-28T17:21:33.503Z,100473.56
2023-03-28T17:24:19.054Z,100484.72
2023-03-28T17:27:05.550Z,100477.66
2023-03-28T17:29:46.556Z,100486.53
2023-03-28T17:32:18.181Z,100490.84
2023-03-28T17:34:52.339Z,100498.41
2023-03-28T17:40:09.514Z,100494.97
2023-03-28T17:42:48.024Z,100490.25
2023-03-28T17:45:16.771Z,100500.78
2023-03-28T17:48:03.700Z,100507.34
2023-03-28T17:53:17.542Z,100513.44
2023-03-28T17:55:48.704Z,100512.75
2023-03-28T17:58:37.572Z,100526.38
2023-03-28T18:01:18.852Z,100517.34
2023-03-28T18:03:54.726Z,100531.97
2023-03-28T18:06:27.610Z,100530.84
2023-03-28T18:08:56.904Z,100533.03
2023-03-28T18:11:43.901Z,100531.28
2023-03-28T18:17:05.507Z,100542.13
2023-03-28T18:19:43.705Z,100540.31
2023-03-28T18:22:22.258Z,100547.81
2023-03-28T18:25:01.964Z,100552.81
2023-03-28T18:27:43.455Z,100552.72
2023-03-28T18:30:25.822Z,100566.28
2023-03-28T18:32:59.646Z,100573.28
2023-03-28T18:41:01.636Z,100560.31
2023-03-28T18:43:37.543Z,100563.50
2023-03-28T18:46:18.500Z,100569.19
2023-03-28T18:51:36.813Z,100576.97
2023-03-28T18:54:17.649Z,100568.63
2023-03-28T18:56:50.042Z,100571.78
2023-03-28T18:59:30.291Z,100571.09
2023-03-28T19:07:18.706Z,100571.53
2023-03-28T19:12:30.871Z,100586.56
2023-03-28T19:15:06.319Z,100575.81
2023-03-28T19:17:41.740Z,100577.66
2023-03-28T19:20:24.021Z,100577.97
2023-03-28T19:28:07.502Z,100573.50
2023-03-28T19:30:47.080Z,100578.59
2023-03-28T19:33:18.048Z,100579.19
2023-03-28T19:35:52.617Z,100580.50
2023-03-28T19:38:26.804Z,100583.69
2023-03-28T19:41:10.814Z,100583.19
2023-03-28T19:43:41.676Z,100581.31
2023-03-28T19:46:33.268Z,100582.28
2023-03-28T19:51:47.815Z,100574.19
2023-03-28T19:54:27.816Z,100581.22
2023-03-28T19:57:06.085Z,100586.34
2023-03-28T19:59:36.668Z,100587.62
2023-03-28T20:02:16.802Z,100589.25
2023-03-28T20:04:48.911Z,100589.25
2023-03-28T20:07:21.893Z,100581.22
2023-03-28T20:09:55.747Z,100579.81
2023-03-28T20:12:26.674Z,100568.00
2023-03-28T20:14:56.850Z,100574.97
2023-03-28T20:17:26.731Z,100575.38
2023-03-28T20:19:55.904Z,100565.41
2023-03-28T20:22:29.957Z,100574.34
2023-03-28T20:25:05.720Z,100565.31
2023-03-28T20:27:49.537Z,100576.09
2023-03-28T20:30:24.557Z,100574.16
2023-03-28T20:32:53.583Z,100568.84
2023-03-28T20:35:29.526Z,100568.94
2023-03-28T20:37:59.783Z,100580.47
2023-03-28T20:40:28.465Z,100574.47
2023-03-28T20:43:08.542Z,100577.31
2023-03-28T20:45:46.062Z,100579.41
2023-03-28T20:48:34.578Z,100585.25
2023-03-28T20:51:16.563Z,100583.22
2023-03-28T20:53:50.111Z,100585.87
2023-03-28T20:59:06.597Z,100584.84
2023-03-28T21:01:41.454Z,100598.28
2023-03-28T21:04:12.729Z,100604.59
2023-03-28T21:06:50.324Z,100595.06
2023-03-28T21:09:30.374Z,100598.34
2023-03-28T21:12:02.043Z,100609.41
2023-03-28T21:14:30.146Z,100605.31
2023-03-28T21:17:01.010Z,100597.09
2023-03-28T21:19:37.996Z,100598.84
2023-03-28T21:22:06.594Z,100593.03
2023-03-28T21:24:35.268Z,100594.94
2023-03-28T21:27:05.609Z,100590.38
2023-03-28T21:29:38.432Z,100600.25
2023-03-28T21:32:07.029Z,100602.72
2023-03-28T21:34:36.859Z,100603.22
2023-03-28T21:37:06.420Z,100607.63
2023-03-28T21:39:39.526Z,100614.62
2023-03-28T21:42:10.679Z,100621.72
2023-03-28T21:44:38.945Z,100622.63
2023-03-28T21:47:07.581Z,100624.28
2023-03-28T21:49:42.455Z,100623.56
2023-03-28T21:52:12.655Z,100628.16
2023-03-28T21:54:44.906Z,100619.25
2023-03-28T21:57:13.774Z,100628.72
2023-03-28T21:59:44.132Z,100621.88
2023-03-28T22:02:14.210Z,100616.34
2023-03-28T22:04:43.220Z,100616.34
2023-03-28T22:07:12.933Z,100619.97
2023-03-28T22:09:44.398Z,100615.53
2023-03-28T22:12:14.974Z,100626.16
2023-03-28T22:14:43.726Z,100635.09
2023-03-28T22:17:14.055Z,100638.94
2023-03-28T22:19:42.529Z,100649.41
2023-03-28T22:22:11.556Z,100643.22
2023-03-28T22:24:39.288Z,100650.06
2023-03-28T22:27:10.107Z,100650.09
2023-03-28T22:29:40.096Z,100650.91
2023-03-28T22:32:09.418Z,100652.00
2023-03-28T22:34:41.566Z,100650.34
2023-03-28T22:37:10.073Z,100654.75
2023-03-28T22:39:40.847Z,100651.97
2023-03-28T22:42:09.423Z,100653.75
2023-03-28T22:44:37.753Z,100654.59
2023-03-28T22:47:05.596Z,100657.19
2023-03-28T22:49:34.250Z,100658.97
2023-03-28T22:52:02.645Z,100658.06
2023-03-28T22:54:33.518Z,100656.25
2023-03-28T22:57:04.354Z,100653.56
2023-03-28T22:59:33.183Z,100659.81
2023-03-28T23:02:02.207Z,100647.53
2023-03-28T23:04:33.184Z,100651.06
2023-03-28T23:07:03.088Z,100662.53
2023-03-28T23:09:33.080Z,100665.16
2023-03-28T23:12:01.029Z,100672.94
2023-03-28T23:14:29.696Z,100685.28
2023-03-28T23:16:58.272Z,100688.75
2023-03-28T23:19:26.139Z,100694.00
2023-03-28T23:21:58.427Z,100691.25
2023-03-28T23:24:30.160Z,100700.91
2023-03-28T23:26:59.119Z,100706.97
2023-03-28T23:29:26.732Z,100710.53
2023-03-28T23:31:54.839Z,100709.59
2023-03-28T23:34:23.207Z,100715.72
2023-03-28T23:36:50.798Z,100724.41
2023-03-28T23:39:19.825Z,100731.41
2023-03-28T23:41:47.968Z,100739.28
2023-03-28T23:44:15.502Z,100739.28
2023-03-28T23:46:43.256Z,100740.16
2023-03-28T23:49:12.524Z,100745.47
2023-03-28T23:51:41.449Z,100743.69
2023-03-28T23:54:10.106Z,100753.38
2023-03-28T23:56:41.808Z,100753.34
2023-03-28T23:59:09.414Z,100754.22
